Time;durP1;ratioP1;P1;durP2;ratioP2;P2;SDS_P1;SDS_P2;PMS_P1;PMS_P2;Temp;Humidity;BMP_temperature;BMP_pressure;BME280_temperature;BME280_humidity;BME280_pressure;Samples;Min_cycle;Max_cycle;Signal;HPM_P1;HPM_P2
2021/04/03 00:00:31;;;;;;;12.37;6.62;;;9.30;38.40;;;;;;2343237;53;20972;-62
2021/04/03 00:02:59;;;;;;;10.48;5.20;;;9.30;39.00;;;;;;2345554;54;21051;-61
2021/04/03 00:05:26;;;;;;;10.93;5.10;;;9.20;38.60;;;;;;2342781;53;20939;-62
2021/04/03 00:07:52;;;;;;;8.32;5.00;;;9.20;38.60;;;;;;2344353;54;21016;-64
2021/04/03 00:11:33;;;;;;;9.35;5.40;;;9.20;38.70;;;;;;2340988;53;20936;-62
2021/04/03 00:14:00;;;;;;;8.95;4.93;;;9.10;38.90;;;;;;2349628;53;20969;-60
2021/04/03 00:16:26;;;;;;;9.48;5.12;;;9.10;38.60;;;;;;2598907;52;20961;-62
2021/04/03 00:18:52;;;;;;;8.90;5.15;;;9.10;38.80;;;;;;2362385;53;20922;-62
2021/04/03 00:21:19;;;;;;;7.68;4.95;;;9.00;38.70;;;;;;2359335;53;21450;-63
2021/04/03 00:23:46;;;;;;;8.98;5.43;;;9.00;38.80;;;;;;2357056;53;20894;-63
2021/04/03 00:26:14;;;;;;;11.05;5.87;;;9.00;38.90;;;;;;2323753;54;20949;-62
2021/04/03 00:28:40;;;;;;;10.07;5.25;;;8.90;38.90;;;;;;2342891;53;21474;-61
2021/04/03 00:31:07;;;;;;;7.90;5.07;;;8.90;39.00;;;;;;2343435;53;20974;-63
2021/04/03 00:33:33;;;;;;;9.15;4.75;;;8.80;39.00;;;;;;2343164;53;20929;-64
2021/04/03 00:36:00;;;;;;;10.13;5.28;;;8.80;39.00;;;;;;2342941;53;20968;-62
2021/04/03 00:38:27;;;;;;;9.45;5.55;;;8.80;39.00;;;;;;2598440;52;20938;-64
2021/04/03 00:40:56;;;;;;;8.90;5.12;;;8.70;39.00;;;;;;2352341;53;21004;-63
2021/04/03 00:43:23;;;;;;;11.63;5.68;;;8.70;39.10;;;;;;2575731;53;20987;-62
2021/04/03 00:45:50;;;;;;;11.35;5.18;;;8.70;39.20;;;;;;2576700;53;20989;-60
2021/04/03 00:48:16;;;;;;;9.45;5.30;;;8.60;39.20;;;;;;2588865;52;21011;-62
2021/04/03 00:50:45;;;;;;;11.98;5.87;;;8.60;39.20;;;;;;2344536;53;21008;-62
2021/04/03 00:53:13;;;;;;;10.90;5.80;;;8.60;39.20;;;;;;2353668;53;21736;-62
2021/04/03 00:55:39;;;;;;;11.05;5.68;;;8.50;39.30;;;;;;2618984;52;20961;-61
2021/04/03 00:58:06;;;;;;;9.65;5.80;;;8.50;39.40;;;;;;2366768;53;20909;-63
2021/04/03 01:00:32;;;;;;;10.18;5.97;;;8.40;39.30;;;;;;2617724;52;20956;-60
2021/04/03 01:02:59;;;;;;;9.35;4.95;;;8.40;39.50;;;;;;2366081;53;20926;-61
2021/04/03 01:05:26;;;;;;;9.85;4.70;;;8.40;39.50;;;;;;2617709;52;20949;-63
2021/04/03 01:07:53;;;;;;;10.73;4.93;;;8.30;39.50;;;;;;2592685;52;21522;-61
2021/04/03 01:10:21;;;;;;;11.05;5.55;;;8.30;39.60;;;;;;2617783;52;21367;-62
2021/04/03 01:14:39;;;;;;;8.68;4.50;;;8.30;39.70;;;;;;2365884;53;21782;-61
2021/04/03 01:17:56;;;;;;;7.18;4.15;;;8.30;40.10;;;;;;2617865;52;21020;-64
2021/04/03 01:20:35;;;;;;;8.48;4.35;;;8.20;39.50;;;;;;2364743;53;20978;-62
2021/04/03 01:28:16;;;;;;;8.45;3.75;;;8.20;39.50;;;;;;2358985;53;21533;-63
2021/04/03 01:30:43;;;;;;;7.72;3.95;;;8.10;40.40;;;;;;2364989;53;21024;-63
2021/04/03 01:33:11;;;;;;;7.80;3.80;;;8.00;39.30;;;;;;2355904;53;21026;-63
2021/04/03 01:35:44;;;;;;;6.85;4.10;;;8.00;39.60;;;;;;2617802;52;21362;-64
2021/04/03 01:40:03;;;;;;;8.93;4.50;;;7.90;39.70;;;;;;2365975;53;20973;-62
2021/04/03 01:42:33;;;;;;;8.00;4.18;;;7.90;40.30;;;;;;2366354;53;20989;-61
2021/04/03 01:45:01;;;;;;;7.32;4.10;;;7.80;39.80;;;;;;2616890;52;20957;-61
2021/04/03 01:47:29;;;;;;;7.28;3.83;;;7.80;39.90;;;;;;2365560;53;20989;-63
2021/04/03 01:49:56;;;;;;;7.68;4.00;;;7.80;40.00;;;;;;2366645;53;21006;-63
2021/04/03 01:52:24;;;;;;;7.93;4.03;;;7.70;40.10;;;;;;2617815;52;20902;-61
2021/04/03 01:54:51;;;;;;;5.75;3.33;;;7.70;40.90;;;;;;2349888;54;20938;-65
2021/04/03 01:57:18;;;;;;;8.60;4.78;;;7.70;40.40;;;;;;2367082;53;21347;-61
2021/04/03 01:59:45;;;;;;;9.55;4.60;;;7.70;40.50;;;;;;2590120;52;21078;-63
2021/04/03 02:02:11;;;;;;;6.43;3.20;;;7.70;40.60;;;;;;2354477;53;20937;-61
2021/04/03 02:04:39;;;;;;;7.55;3.97;;;7.70;40.70;;;;;;2365850;53;20929;-64
2021/04/03 02:07:05;;;;;;;9.32;4.20;;;7.70;40.90;;;;;;2365574;53;20945;-62
2021/04/03 02:09:31;;;;;;;7.72;4.18;;;7.70;41.00;;;;;;2617180;52;21816;-62
2021/04/03 02:11:57;;;;;;;8.30;4.70;;;7.80;41.20;;;;;;2365665;53;20957;-62
2021/04/03 02:14:24;;;;;;;11.18;4.65;;;7.80;41.30;;;;;;2363611;53;21862;-63
2021/04/03 02:16:51;;;;;;;6.60;3.58;;;7.90;41.40;;;;;;2320059;54;21016;-64
2021/04/03 02:19:18;;;;;;;6.00;3.55;;;7.90;41.50;;;;;;2585712;53;20968;-64
2021/04/03 02:21:46;;;;;;;7.40;3.62;;;8.00;41.60;;;;;;2339416;54;20917;-61
2021/04/03 02:24:12;;;;;;;5.60;3.30;;;8.00;41.50;;;;;;2327229;54;21072;-62
2021/04/03 02:26:39;;;;;;;5.75;3.08;;;8.00;41.50;;;;;;2331009;53;21777;-61
2021/04/03 02:29:06;;;;;;;8.20;4.05;;;8.10;41.50;;;;;;2339163;53;21882;-62
2021/04/03 02:31:37;;;;;;;5.87;3.55;;;8.10;41.50;;;;;;2586022;53;21514;-63
2021/04/03 02:34:03;;;;;;;6.47;3.57;;;8.20;41.70;;;;;;2585555;53;21373;-61
2021/04/03 02:36:30;;;;;;;7.00;3.25;;;8.20;41.60;;;;;;2337733;53;20979;-61
2021/04/03 02:38:56;;;;;;;7.20;3.67;;;8.30;41.60;;;;;;2571158;53;20972;-63
2021/04/03 02:41:33;;;;;;;7.85;4.22;;;8.30;41.60;;;;;;2339654;53;21504;-61
2021/04/03 02:45:38;;;;;;;7.00;3.20;;;8.30;41.70;;;;;;2327165;54;21753;-61
2021/04/03 02:48:07;;;;;;;8.25;3.20;;;8.40;41.70;;;;;;2365580;53;20914;-64
2021/04/03 02:50:39;;;;;;;6.82;3.80;;;8.50;41.40;;;;;;2617663;52;20894;-63
2021/04/03 02:53:08;;;;;;;6.45;3.37;;;8.50;41.50;;;;;;2365959;53;20926;-62
2021/04/03 02:55:34;;;;;;;6.57;3.40;;;8.50;41.50;;;;;;2605591;52;21031;-64
2021/04/03 02:58:01;;;;;;;5.90;3.15;;;8.50;41.40;;;;;;2593734;52;20993;-64
2021/04/03 03:00:27;;;;;;;6.75;3.70;;;8.50;41.40;;;;;;2594337;52;21017;-64
2021/04/03 03:02:56;;;;;;;6.12;3.40;;;8.50;41.40;;;;;;2365487;53;20945;-62
2021/04/03 03:05:25;;;;;;;6.43;3.20;;;8.60;41.50;;;;;;2617212;52;21800;-62
2021/04/03 03:07:52;;;;;;;7.15;3.33;;;8.60;41.50;;;;;;2365241;53;20950;-63
2021/04/03 03:10:19;;;;;;;6.05;3.28;;;8.60;41.50;;;;;;2617223;52;21431;-64
2021/04/03 03:12:45;;;;;;;7.00;3.05;;;8.60;41.50;;;;;;2616938;52;21449;-61
2021/04/03 03:15:14;;;;;;;5.40;2.80;;;8.60;41.50;;;;;;2616905;52;20976;-61
2021/04/03 03:17:42;;;;;;;6.97;2.95;;;8.60;41.50;;;;;;2366659;53;21515;-60
2021/04/03 03:20:22;;;;;;;7.70;3.80;;;8.70;41.50;;;;;;2616333;52;21939;-62
2021/04/03 03:22:48;;;;;;;7.00;3.35;;;8.70;41.70;;;;;;2348923;53;20969;-62
2021/04/03 03:25:15;;;;;;;7.40;3.45;;;8.70;41.50;;;;;;2593639;52;21443;-64
2021/04/03 03:27:44;;;;;;;7.57;3.90;;;8.70;41.50;;;;;;2365700;53;20911;-62
2021/04/03 03:30:12;;;;;;;7.18;3.60;;;8.70;41.50;;;;;;2611347;52;21002;-64
2021/04/03 03:32:39;;;;;;;5.70;3.45;;;8.70;41.50;;;;;;2353264;53;21419;-61
2021/04/03 03:35:05;;;;;;;7.03;3.78;;;8.70;41.50;;;;;;2606583;52;21046;-64
2021/04/03 03:37:32;;;;;;;6.93;3.70;;;8.70;41.50;;;;;;2356110;53;20921;-64
2021/04/03 03:39:58;;;;;;;6.82;3.60;;;8.70;41.60;;;;;;2617280;52;20997;-62
2021/04/03 03:42:24;;;;;;;6.45;3.78;;;8.70;41.60;;;;;;2617562;52;21351;-62
2021/04/03 03:44:51;;;;;;;6.82;4.03;;;8.70;41.60;;;;;;2365661;53;21716;-63
2021/04/03 03:47:18;;;;;;;7.62;4.22;;;8.70;41.60;;;;;;2616359;52;21028;-61
2021/04/03 03:49:44;;;;;;;8.10;3.95;;;8.70;41.70;;;;;;2365201;53;20938;-63
2021/04/03 03:52:10;;;;;;;6.70;3.60;;;8.70;41.60;;;;;;2349949;53;20966;-61
2021/04/03 03:54:37;;;;;;;7.50;3.87;;;8.70;41.60;;;;;;2617314;52;20954;-62
2021/04/03 03:57:07;;;;;;;6.97;3.75;;;8.70;41.60;;;;;;2617712;52;21369;-61
2021/04/03 03:59:34;;;;;;;7.95;4.32;;;8.70;41.70;;;;;;2593694;52;20922;-64
2021/04/03 04:02:00;;;;;;;7.20;4.20;;;8.60;41.60;;;;;;2617700;52;21661;-63
2021/04/03 04:04:26;;;;;;;7.90;4.18;;;8.70;41.60;;;;;;2365679;53;20965;-61
2021/04/03 04:06:53;;;;;;;8.05;4.18;;;8.70;41.70;;;;;;2365602;53;20941;-60
2021/04/03 04:09:19;;;;;;;8.50;4.57;;;8.70;41.70;;;;;;2365738;53;20921;-63
2021/04/03 04:11:46;;;;;;;7.78;4.05;;;8.70;41.80;;;;;;2366478;53;20917;-63
2021/04/03 04:14:15;;;;;;;7.72;4.35;;;8.60;41.80;;;;;;2617151;52;20925;-61
2021/04/03 04:16:41;;;;;;;8.18;4.40;;;8.70;41.90;;;;;;2366003;53;20953;-63
2021/04/03 04:19:08;;;;;;;7.93;4.47;;;8.70;42.00;;;;;;2365377;53;20909;-63
2021/04/03 04:21:34;;;;;;;10.43;4.47;;;8.70;41.90;;;;;;2366035;53;20961;-62
2021/04/03 04:24:02;;;;;;;7.53;4.40;;;8.60;41.80;;;;;;2365823;53;21009;-61
2021/04/03 04:26:29;;;;;;;8.65;4.47;;;8.60;41.90;;;;;;2614113;52;21134;-62
2021/04/03 04:28:56;;;;;;;6.68;3.90;;;8.60;41.90;;;;;;2349555;53;20922;-61
2021/04/03 04:31:22;;;;;;;9.13;4.07;;;8.60;41.90;;;;;;2349439;53;21455;-62
2021/04/03 04:33:49;;;;;;;8.75;4.30;;;8.50;41.90;;;;;;2365535;53;20981;-63
2021/04/03 04:36:15;;;;;;;8.57;4.43;;;8.50;41.90;;;;;;2365369;53;21386;-61
2021/04/03 04:38:41;;;;;;;9.60;4.53;;;8.50;41.90;;;;;;2365987;53;20922;-64
2021/04/03 04:41:08;;;;;;;9.23;4.50;;;8.50;41.90;;;;;;2365798;53;20912;-63
2021/04/03 04:43:35;;;;;;;8.93;3.78;;;8.50;42.00;;;;;;2328672;54;21929;-63
2021/04/03 04:46:01;;;;;;;9.38;4.25;;;8.40;41.90;;;;;;2348350;53;21379;-61
2021/04/03 04:48:27;;;;;;;12.35;5.22;;;8.40;41.90;;;;;;2345701;53;20983;-61
2021/04/03 04:50:54;;;;;;;7.90;4.07;;;8.30;41.90;;;;;;2365575;53;20925;-63
2021/04/03 04:53:21;;;;;;;11.05;4.53;;;8.30;41.90;;;;;;2362867;53;21006;-62
2021/04/03 04:55:47;;;;;;;10.80;5.07;;;8.20;41.80;;;;;;2591671;52;21458;-63
2021/04/03 04:58:17;;;;;;;6.97;3.90;;;8.20;41.80;;;;;;2367836;53;20949;-61
2021/04/03 05:00:43;;;;;;;9.15;3.90;;;8.10;41.80;;;;;;2365115;54;20913;-61
2021/04/03 05:03:10;;;;;;;6.93;3.95;;;8.10;41.80;;;;;;2365828;53;22130;-61
2021/04/03 05:05:36;;;;;;;7.47;3.58;;;8.00;41.80;;;;;;2350625;53;20897;-63
2021/04/03 05:08:03;;;;;;;7.30;3.85;;;7.90;41.80;;;;;;2351380;53;21055;-62
2021/04/03 05:10:29;;;;;;;7.12;3.75;;;7.80;41.80;;;;;;2364062;54;20916;-61
2021/04/03 05:13:04;;;;;;;6.03;3.45;;;7.80;41.80;;;;;;2357578;53;21023;-62
2021/04/03 05:15:30;;;;;;;7.75;3.67;;;7.70;42.00;;;;;;2356386;53;20917;-63
2021/04/03 05:17:57;;;;;;;6.00;3.08;;;7.70;41.90;;;;;;2613504;52;20940;-61
2021/04/03 05:20:23;;;;;;;5.65;3.45;;;7.60;41.90;;;;;;2595264;52;21404;-62
2021/04/03 05:22:49;;;;;;;7.30;3.87;;;7.50;41.90;;;;;;2609032;52;20886;-62
2021/04/03 05:25:15;;;;;;;6.25;3.35;;;7.50;42.00;;;;;;2351440;53;20993;-61
2021/04/03 05:27:42;;;;;;;7.00;3.37;;;7.40;42.00;;;;;;2598304;52;21546;-63
2021/04/03 05:30:09;;;;;;;7.97;3.67;;;7.40;42.10;;;;;;2352308;53;20909;-61
2021/04/03 05:32:35;;;;;;;7.93;4.10;;;7.30;42.10;;;;;;2599601;52;21464;-61
2021/04/03 05:35:01;;;;;;;9.02;4.30;;;7.30;42.20;;;;;;2600117;52;20965;-62
2021/04/03 05:37:28;;;;;;;8.25;4.00;;;7.20;42.20;;;;;;2363179;53;20922;-64
2021/04/03 05:39:54;;;;;;;7.00;4.03;;;7.20;42.30;;;;;;2362953;53;20897;-63
2021/04/03 05:42:21;;;;;;;9.98;3.90;;;7.10;42.30;;;;;;2363358;53;20977;-63
2021/04/03 05:44:47;;;;;;;6.65;3.62;;;7.10;42.50;;;;;;2616909;52;21450;-63
2021/04/03 05:47:14;;;;;;;8.07;4.00;;;7.10;42.50;;;;;;2617396;52;20953;-61
2021/04/03 05:49:40;;;;;;;9.38;3.75;;;7.10;42.60;;;;;;2617836;52;21822;-64
2021/04/03 05:52:07;;;;;;;8.75;4.53;;;7.00;42.60;;;;;;2617340;52;20945;-61
2021/04/03 05:54:38;;;;;;;7.32;3.90;;;7.00;42.80;;;;;;2617069;52;20997;-63
2021/04/03 05:57:05;;;;;;;8.68;3.95;;;7.00;42.90;;;;;;2617000;52;20945;-62
2021/04/03 05:59:32;;;;;;;10.85;4.40;;;7.00;43.00;;;;;;2358393;53;21031;-60
2021/04/03 06:01:59;;;;;;;6.87;3.75;;;7.00;43.10;;;;;;2607969;52;20922;-63
2021/04/03 06:04:25;;;;;;;10.73;4.10;;;6.90;43.00;;;;;;2363740;53;21053;-63
2021/04/03 06:06:51;;;;;;;10.38;5.05;;;6.90;43.00;;;;;;2352085;53;20976;-61
2021/04/03 06:09:17;;;;;;;8.85;4.32;;;6.90;43.20;;;;;;2365479;53;20905;-63
2021/04/03 06:11:45;;;;;;;8.25;4.03;;;6.90;43.30;;;;;;2365200;53;20908;-61
2021/04/03 06:14:11;;;;;;;8.63;4.35;;;6.90;43.40;;;;;;2365319;53;21353;-61
2021/04/03 06:16:44;;;;;;;9.65;4.45;;;6.90;43.40;;;;;;2364783;53;21743;-63
2021/04/03 06:19:18;;;;;;;11.35;4.75;;;6.90;43.60;;;;;;2364937;53;20958;-63
2021/04/03 06:22:03;;;;;;;9.85;4.65;;;6.90;43.60;;;;;;2322867;54;21004;-60
2021/04/03 06:24:36;;;;;;;6.70;3.85;;;7.00;44.80;;;;;;2591732;53;21014;-62
2021/04/03 06:27:15;;;;;;;9.45;4.22;;;7.00;43.90;;;;;;2348605;53;20957;-62
2021/04/03 06:29:44;;;;;;;9.77;4.57;;;7.00;44.10;;;;;;2348484;53;20976;-61
2021/04/03 06:32:23;;;;;;;9.20;4.80;;;7.00;43.90;;;;;;2344219;53;20903;-61
2021/04/03 06:34:50;;;;;;;9.07;4.57;;;7.10;44.00;;;;;;2351750;54;20981;-63
2021/04/03 06:37:36;;;;;;;9.63;4.78;;;7.10;44.10;;;;;;2351805;54;20925;-63
2021/04/03 06:40:09;;;;;;;10.45;4.82;;;7.20;44.30;;;;;;2366913;53;20893;-63
2021/04/03 06:42:55;;;;;;;9.75;5.28;;;7.30;44.50;;;;;;2366161;53;20918;-62
2021/04/03 06:45:26;;;;;;;9.45;4.62;;;7.40;45.60;;;;;;2365438;53;20970;-64
2021/04/03 06:47:58;;;;;;;8.63;4.70;;;7.70;46.90;;;;;;2354227;53;21437;-63
2021/04/03 06:51:06;;;;;;;10.82;5.18;;;8.10;48.30;;;;;;2367308;53;20997;-62
2021/04/03 06:53:34;;;;;;;7.40;3.90;;;8.70;49.50;;;;;;2363671;53;21499;-61
2021/04/03 06:56:00;;;;;;;8.25;4.75;;;9.40;49.80;;;;;;2354747;53;20922;-61
2021/04/03 06:58:28;;;;;;;8.70;4.80;;;10.00;48.80;;;;;;2593395;52;20882;-62
2021/04/03 07:00:54;;;;;;;9.30;4.75;;;10.60;48.30;;;;;;2345475;53;21359;-64
2021/04/03 07:03:23;;;;;;;8.50;4.78;;;11.00;47.10;;;;;;2365621;53;20985;-63
2021/04/03 07:05:49;;;;;;;8.57;5.07;;;11.30;45.90;;;;;;2573130;53;21029;-64
2021/04/03 07:08:16;;;;;;;9.68;5.20;;;11.40;44.80;;;;;;2593304;52;20961;-61
2021/04/03 07:10:46;;;;;;;7.03;4.55;;;11.50;44.00;;;;;;2369313;53;21021;-64
2021/04/03 07:13:12;;;;;;;9.25;5.07;;;11.50;43.40;;;;;;2369104;53;21466;-61
2021/04/03 07:15:39;;;;;;;7.30;5.05;;;11.50;42.90;;;;;;2369234;53;21509;-65
2021/04/03 07:18:09;;;;;;;7.35;4.45;;;11.40;42.60;;;;;;2621547;52;20977;-62
2021/04/03 07:20:35;;;;;;;6.85;4.53;;;11.30;42.70;;;;;;2369126;53;21028;-63
2021/04/03 07:23:06;;;;;;;7.68;4.20;;;11.40;43.50;;;;;;2621480;52;21120;-62
2021/04/03 07:25:33;;;;;;;8.77;4.55;;;11.50;44.40;;;;;;2372084;53;21398;-62
2021/04/03 07:28:10;;;;;;;7.95;4.32;;;11.70;45.20;;;;;;2623813;52;20942;-64
2021/04/03 07:30:44;;;;;;;11.43;4.55;;;12.10;45.80;;;;;;2351195;53;21419;-61
2021/04/03 07:33:22;;;;;;;8.02;3.42;;;12.40;46.20;;;;;;2615105;52;20980;-65
2021/04/03 07:35:50;;;;;;;7.78;4.15;;;12.80;46.00;;;;;;2353626;53;20992;-62
2021/04/03 07:38:23;;;;;;;5.80;3.35;;;13.20;45.70;;;;;;2359467;53;20994;-65
2021/04/03 07:41:00;;;;;;;5.37;3.20;;;13.40;44.90;;;;;;2371935;53;21014;-62
2021/04/03 07:43:35;;;;;;;8.82;3.92;;;13.60;43.90;;;;;;2351927;53;21031;-63
2021/04/03 07:46:45;;;;;;;8.85;3.35;;;13.70;42.90;;;;;;2372258;53;21546;-64
2021/04/03 07:49:31;;;;;;;8.05;3.28;;;13.80;42.10;;;;;;2614033;52;21039;-64
2021/04/03 07:51:59;;;;;;;5.32;2.75;;;13.70;41.30;;;;;;2361721;53;20934;-62
2021/04/03 07:54:27;;;;;;;6.53;3.17;;;13.60;40.90;;;;;;2371421;53;21427;-62
2021/04/03 07:56:55;;;;;;;4.72;2.62;;;13.50;40.50;;;;;;2352156;54;21014;-62
2021/04/03 07:59:47;;;;;;;7.32;3.50;;;13.30;40.20;;;;;;2353014;53;21074;-64
2021/04/03 08:02:15;;;;;;;5.87;2.92;;;13.20;39.90;;;;;;2362851;53;20903;-63
2021/04/03 08:04:42;;;;;;;7.47;3.30;;;13.10;40.10;;;;;;2371800;53;21429;-61
2021/04/03 08:07:08;;;;;;;4.80;2.67;;;13.00;40.10;;;;;;2366568;53;20938;-64
2021/04/03 08:09:35;;;;;;;6.12;3.33;;;12.90;40.00;;;;;;2371849;53;21066;-64
2021/04/03 08:12:02;;;;;;;6.22;3.80;;;12.90;39.80;;;;;;2356362;53;20976;-62
2021/04/03 08:14:31;;;;;;;7.35;3.72;;;12.80;39.50;;;;;;2618746;52;21061;-64
2021/04/03 08:17:01;;;;;;;5.35;3.10;;;12.60;39.30;;;;;;2624663;52;21434;-64
2021/04/03 08:19:28;;;;;;;7.32;3.05;;;12.50;40.00;;;;;;2339336;54;20935;-63
2021/04/03 08:21:55;;;;;;;5.60;2.90;;;12.40;39.40;;;;;;2365423;53;20921;-63
2021/04/03 08:24:21;;;;;;;5.97;2.83;;;12.30;39.40;;;;;;2344188;54;20985;-64
2021/04/03 08:26:52;;;;;;;7.32;3.33;;;12.30;39.50;;;;;;2595913;52;21154;-62
2021/04/03 08:29:26;;;;;;;5.30;2.85;;;12.20;39.40;;;;;;2601107;52;21025;-62
2021/04/03 08:31:53;;;;;;;5.87;2.62;;;12.10;39.40;;;;;;2371956;53;20989;-62
2021/04/03 08:34:19;;;;;;;6.43;2.72;;;12.10;39.60;;;;;;2624888;52;20947;-61
2021/04/03 08:36:46;;;;;;;6.28;2.80;;;12.00;39.70;;;;;;2623954;52;20950;-63
2021/04/03 08:39:15;;;;;;;4.78;2.58;;;12.00;39.80;;;;;;2371361;53;21065;-63
2021/04/03 08:41:43;;;;;;;6.80;2.90;;;12.10;40.20;;;;;;2367021;53;21023;-64
2021/04/03 08:44:23;;;;;;;6.75;2.70;;;12.00;40.10;;;;;;2356250;53;20954;-64
2021/04/03 08:46:52;;;;;;;6.25;3.10;;;12.20;40.40;;;;;;2350550;53;20938;-63
2021/04/03 08:49:26;;;;;;;5.30;2.62;;;12.40;41.20;;;;;;2623467;52;21529;-62
2021/04/03 08:51:53;;;;;;;4.68;2.70;;;12.60;41.90;;;;;;2371170;53;20918;-65
2021/04/03 08:54:19;;;;;;;6.97;2.80;;;13.00;42.40;;;;;;2371264;53;21066;-65
2021/04/03 08:56:45;;;;;;;4.68;2.85;;;13.30;42.20;;;;;;2371847;53;20969;-64
2021/04/03 08:59:13;;;;;;;4.68;2.58;;;13.50;41.50;;;;;;2371923;53;20958;-63
2021/04/03 09:01:50;;;;;;;5.65;2.22;;;13.70;40.70;;;;;;2361192;53;20944;-64
2021/04/03 09:04:16;;;;;;;5.40;2.53;;;13.80;39.90;;;;;;2364255;53;20942;-65
2021/04/03 09:06:50;;;;;;;5.43;2.15;;;13.80;39.80;;;;;;2367504;53;21071;-65
2021/04/03 09:09:29;;;;;;;5.72;2.62;;;13.90;39.70;;;;;;2339493;54;20949;-63
2021/04/03 09:11:57;;;;;;;4.43;2.15;;;13.90;39.50;;;;;;2341026;53;20931;-65
2021/04/03 09:15:27;;;;;;;4.95;2.12;;;14.00;39.40;;;;;;2346335;54;20951;-65
2021/04/03 09:17:56;;;;;;;5.07;1.77;;;14.00;39.00;;;;;;2351758;53;20930;-64
2021/04/03 09:20:24;;;;;;;5.60;2.10;;;14.10;39.50;;;;;;2372503;53;21333;-64
2021/04/03 09:22:52;;;;;;;4.50;2.55;;;14.20;39.70;;;;;;2600055;52;20954;-65
2021/04/03 09:25:20;;;;;;;5.18;2.25;;;14.40;40.40;;;;;;2371605;53;20933;-61
2021/04/03 09:27:56;;;;;;;4.82;1.90;;;14.70;41.10;;;;;;2365530;53;21012;-65
2021/04/03 09:30:37;;;;;;;3.00;1.48;;;15.10;41.10;;;;;;2601556;52;21037;-64
2021/04/03 09:33:33;;;;;;;3.10;1.45;;;15.50;41.30;;;;;;2604978;52;20950;-63
2021/04/03 09:36:11;;;;;;;5.05;1.58;;;15.90;40.90;;;;;;2544729;54;21482;-65
2021/04/03 09:38:37;;;;;;;4.20;1.62;;;16.30;39.80;;;;;;2317534;54;1353720;-63
2021/04/03 09:41:22;;;;;;;3.42;1.50;;;16.40;38.90;;;;;;2344808;54;20960;-62
2021/04/03 09:43:48;;;;;;;4.20;1.40;;;16.40;37.40;;;;;;2343728;53;21489;-63
2021/04/03 09:46:15;;;;;;;2.75;1.45;;;16.30;37.20;;;;;;2590800;53;20940;-63
2021/04/03 09:48:41;;;;;;;4.60;1.50;;;16.20;36.70;;;;;;2590487;53;20940;-62
2021/04/03 09:51:08;;;;;;;3.60;1.45;;;16.00;36.40;;;;;;2344288;53;20949;-62
2021/04/03 09:53:35;;;;;;;4.82;1.55;;;15.90;36.30;;;;;;2344310;53;20951;-63
2021/04/03 09:56:02;;;;;;;3.97;1.50;;;15.80;36.20;;;;;;2357883;53;20998;-63
2021/04/03 09:58:28;;;;;;;2.97;1.30;;;15.70;36.00;;;;;;2362263;53;20886;-62
2021/04/03 10:00:54;;;;;;;4.18;1.60;;;15.60;35.90;;;;;;2367217;53;20933;-62
2021/04/03 10:03:21;;;;;;;3.37;1.50;;;15.50;36.00;;;;;;2354800;53;21494;-62
2021/04/03 10:05:47;;;;;;;5.75;1.83;;;15.40;36.30;;;;;;2366446;53;20938;-62
2021/04/03 10:08:14;;;;;;;3.80;1.67;;;15.40;36.20;;;;;;2597673;52;20882;-62
2021/04/03 10:10:44;;;;;;;4.47;1.45;;;15.40;35.90;;;;;;2367529;53;20953;-62
2021/04/03 10:13:10;;;;;;;3.95;1.50;;;15.30;35.50;;;;;;2619401;52;20881;-63
2021/04/03 10:15:37;;;;;;;2.90;1.50;;;15.20;35.40;;;;;;2618801;52;20950;-62
2021/04/03 10:18:04;;;;;;;3.00;1.45;;;15.10;35.30;;;;;;2351156;54;20941;-62
2021/04/03 10:20:31;;;;;;;4.03;1.65;;;15.10;35.50;;;;;;2618924;52;20970;-63
2021/04/03 10:22:58;;;;;;;3.53;1.40;;;15.00;35.50;;;;;;2367039;53;21088;-62
2021/04/03 10:25:28;;;;;;;4.05;1.50;;;15.00;35.60;;;;;;2619160;52;21334;-62
2021/04/03 10:27:55;;;;;;;3.25;1.40;;;14.90;35.40;;;;;;2353609;53;20966;-62
2021/04/03 10:30:23;;;;;;;4.60;1.40;;;14.90;35.40;;;;;;2351878;53;21064;-62
2021/04/03 10:32:49;;;;;;;6.57;1.40;;;14.90;35.40;;;;;;2348839;53;21777;-62
2021/04/03 10:35:16;;;;;;;4.30;1.12;;;14.90;35.40;;;;;;2601313;52;20939;-62
2021/04/03 10:37:42;;;;;;;3.33;1.12;;;14.90;35.40;;;;;;2354524;53;20996;-62
2021/04/03 10:40:09;;;;;;;4.43;1.27;;;14.90;35.50;;;;;;2595213;52;20984;-62
2021/04/03 10:42:35;;;;;;;4.55;1.12;;;15.00;35.60;;;;;;2367174;53;20905;-62
2021/04/03 10:45:06;;;;;;;3.87;1.30;;;15.00;36.20;;;;;;2366946;53;20940;-63
2021/04/03 10:47:32;;;;;;;3.25;1.05;;;15.10;35.50;;;;;;2619271;52;20961;-62
2021/04/03 10:49:58;;;;;;;2.72;1.10;;;15.10;35.60;;;;;;2619113;52;20961;-62
2021/04/03 10:52:25;;;;;;;3.05;1.25;;;15.20;35.70;;;;;;2367646;53;20901;-62
2021/04/03 10:54:51;;;;;;;4.25;1.42;;;15.20;35.50;;;;;;2367364;53;20901;-62
2021/04/03 10:57:21;;;;;;;3.30;1.27;;;15.20;35.60;;;;;;2356033;53;21722;-62
2021/04/03 10:59:49;;;;;;;3.70;1.50;;;15.30;35.50;;;;;;2362666;53;21004;-62
2021/04/03 11:02:15;;;;;;;5.87;1.65;;;15.30;35.20;;;;;;2356799;53;20946;-62
2021/04/03 11:04:41;;;;;;;3.00;1.27;;;15.30;35.00;;;;;;2352050;53;20923;-63
2021/04/03 11:07:08;;;;;;;3.40;1.48;;;15.30;34.90;;;;;;2362078;53;20929;-62
2021/04/03 11:09:34;;;;;;;3.28;1.60;;;15.20;34.60;;;;;;2351246;53;20933;-62
2021/04/03 11:12:01;;;;;;;4.22;1.40;;;15.30;34.50;;;;;;2366917;53;20945;-62
2021/04/03 11:14:31;;;;;;;3.22;1.48;;;15.20;34.90;;;;;;2619215;52;21214;-62
2021/04/03 11:16:57;;;;;;;4.25;1.60;;;15.20;35.10;;;;;;2366021;53;20924;-62
2021/04/03 11:19:26;;;;;;;2.62;1.23;;;15.30;35.60;;;;;;2360367;53;21002;-62
2021/04/03 11:21:54;;;;;;;5.25;1.20;;;15.50;36.20;;;;;;2349327;53;20905;-62
2021/04/03 11:24:21;;;;;;;3.25;1.10;;;15.60;36.10;;;;;;2595573;52;20926;-63
2021/04/03 11:26:48;;;;;;;3.22;1.30;;;15.70;35.70;;;;;;2368171;53;21521;-62
2021/04/03 11:29:14;;;;;;;2.97;1.20;;;15.80;35.40;;;;;;2351985;54;20894;-62
2021/04/03 11:31:40;;;;;;;3.33;1.33;;;15.90;35.00;;;;;;2358236;53;20942;-62
2021/04/03 11:34:08;;;;;;;4.18;1.25;;;16.00;34.80;;;;;;2361106;53;20937;-62
2021/04/03 11:36:34;;;;;;;4.80;1.55;;;16.00;34.70;;;;;;2619880;52;20898;-63
2021/04/03 11:39:02;;;;;;;4.10;1.30;;;16.00;34.60;;;;;;2350777;53;21005;-62
2021/04/03 11:41:31;;;;;;;4.35;1.40;;;16.00;34.30;;;;;;2367596;53;20969;-62
2021/04/03 11:43:57;;;;;;;3.20;1.25;;;16.00;34.20;;;;;;2353393;53;20974;-62
2021/04/03 11:46:24;;;;;;;3.40;1.35;;;15.90;34.00;;;;;;2356577;53;20937;-62
2021/04/03 11:48:50;;;;;;;3.83;1.12;;;15.80;33.90;;;;;;2352826;53;21423;-62
2021/04/03 11:51:16;;;;;;;3.70;1.40;;;15.80;33.90;;;;;;2590741;53;20925;-62
2021/04/03 11:53:50;;;;;;;3.10;1.20;;;15.80;34.20;;;;;;2368202;53;20918;-63
2021/04/03 11:56:16;;;;;;;4.40;1.30;;;15.80;33.90;;;;;;2367877;53;20917;-62
2021/04/03 11:58:48;;;;;;;3.00;1.12;;;15.80;34.00;;;;;;2618855;52;20906;-62
2021/04/03 12:01:15;;;;;;;3.25;1.10;;;15.80;34.20;;;;;;2353525;53;20946;-62
2021/04/03 12:03:41;;;;;;;3.20;1.10;;;15.90;34.60;;;;;;2351799;53;20981;-63
2021/04/03 12:06:07;;;;;;;2.62;1.15;;;16.10;35.30;;;;;;2352364;53;21030;-63
2021/04/03 12:08:34;;;;;;;4.28;1.50;;;16.30;35.60;;;;;;2364294;53;20932;-63
2021/04/03 12:11:00;;;;;;;3.20;1.33;;;16.50;35.70;;;;;;2594606;52;20951;-62
2021/04/03 12:13:27;;;;;;;4.30;1.30;;;16.80;35.90;;;;;;2602127;52;21399;-62
2021/04/03 12:15:53;;;;;;;3.28;1.25;;;17.00;35.30;;;;;;2601694;52;20937;-63
2021/04/03 12:18:20;;;;;;;4.15;1.25;;;17.20;34.60;;;;;;2361870;53;20954;-62
2021/04/03 12:20:48;;;;;;;4.37;1.20;;;17.20;34.00;;;;;;2348070;53;20976;-62
2021/04/03 12:23:17;;;;;;;3.08;1.30;;;17.20;33.50;;;;;;2366527;53;20949;-62
2021/04/03 12:25:46;;;;;;;2.50;1.10;;;17.20;33.20;;;;;;2367253;53;21061;-62
2021/04/03 12:28:12;;;;;;;3.12;1.17;;;17.10;32.90;;;;;;2598288;52;21150;-62
2021/04/03 12:30:39;;;;;;;3.33;1.30;;;17.10;32.90;;;;;;2366199;53;20996;-62
2021/04/03 12:33:05;;;;;;;3.03;1.10;;;17.00;32.80;;;;;;2354723;53;20930;-63
2021/04/03 12:35:32;;;;;;;2.55;1.00;;;17.00;32.80;;;;;;2363210;53;20960;-62
2021/04/03 12:37:58;;;;;;;4.45;1.50;;;17.00;32.70;;;;;;2366899;53;20973;-62
2021/04/03 12:40:24;;;;;;;3.45;1.40;;;16.90;32.50;;;;;;2367366;53;21747;-62
2021/04/03 12:42:50;;;;;;;3.42;1.30;;;16.90;32.50;;;;;;2618505;52;20878;-62
2021/04/03 12:45:17;;;;;;;2.17;0.95;;;16.80;32.60;;;;;;2597519;52;21030;-62
2021/04/03 12:47:43;;;;;;;3.22;1.10;;;16.80;32.60;;;;;;2595468;52;20965;-62
2021/04/03 12:50:10;;;;;;;2.80;1.05;;;16.80;32.60;;;;;;2357365;53;20974;-63
2021/04/03 12:52:37;;;;;;;3.03;1.30;;;16.80;32.60;;;;;;2352672;53;21029;-62
2021/04/03 12:55:04;;;;;;;5.20;1.25;;;16.80;32.80;;;;;;2363404;53;22251;-62
2021/04/03 12:57:31;;;;;;;3.35;1.10;;;16.80;32.70;;;;;;2353181;53;20885;-62
2021/04/03 12:59:57;;;;;;;3.28;1.35;;;16.90;32.80;;;;;;2619271;52;20929;-62
2021/04/03 13:02:24;;;;;;;2.67;1.20;;;17.00;32.90;;;;;;2367585;53;20898;-62
2021/04/03 13:04:50;;;;;;;3.60;1.30;;;17.00;32.90;;;;;;2363222;53;20986;-62
2021/04/03 13:07:16;;;;;;;3.50;1.27;;;17.10;33.10;;;;;;2356112;53;21390;-62
2021/04/03 13:09:43;;;;;;;4.68;1.15;;;17.20;33.30;;;;;;2351773;53;20990;-62